LHB4 EDLW-LSZR
Flight info
| Callsign | LHB4 |
|---|---|
| Flight time | 0h 43m |
| Altitude | 23000 |
| Route | GMH1U GMH DCT TESGA DCT BOMBI DCT SUL DCT GARMO |
| Aircraft | C750/M-SBDE3FGHRWXY/S |
Departure
| Time | 2026-05-04 16:28 |
|---|---|
| Airport | Dortmund Airport (EDLW) |
Arrival
| Time | 2026-05-04 17:12 |
|---|---|
| Airport | Sankt Gallen Altenrhein Airport (LSZR) |
| Time | Latitude | Longitude | Altitude | Speed | Heading |
|---|---|---|---|---|---|
| 2026-05-04 16:02 | 51.51218 | 7.60467 | 445 ft | 0 kts | 107° |
| 2026-05-04 16:18 | 51.51224 | 7.60482 | 436 ft | 3 kts | 27° |
| 2026-05-04 16:19 | 51.51220 | 7.60369 | 439 ft | 11 kts | 240° |
| 2026-05-04 16:19 | 51.51165 | 7.60176 | 443 ft | 5 kts | 304° |
| 2026-05-04 16:20 | 51.51252 | 7.60319 | 437 ft | 15 kts | 60° |
| 2026-05-04 16:20 | 51.51361 | 7.60629 | 434 ft | 23 kts | 60° |
| 2026-05-04 16:21 | 51.51620 | 7.61163 | 429 ft | 16 kts | 58° |
| 2026-05-04 16:22 | 51.51758 | 7.61554 | 423 ft | 24 kts | 60° |
| 2026-05-04 16:22 | 51.52021 | 7.62298 | 413 ft | 23 kts | 61° |
| 2026-05-04 16:23 | 51.52126 | 7.62364 | 413 ft | 0 kts | 331° |
| 2026-05-04 16:26 | 51.52202 | 7.62272 | 415 ft | 3 kts | 243° |
| 2026-05-04 16:27 | 51.52200 | 7.62266 | 415 ft | 0 kts | 241° |
| 2026-05-04 16:28 | 51.52035 | 7.61797 | 412 ft | 105 kts | 241° |
| 2026-05-04 16:28 | 51.50333 | 7.56927 | 1261 ft | 216 kts | 240° |
| 2026-05-04 16:29 | 51.46632 | 7.47838 | 4918 ft | 257 kts | 209° |
| 2026-05-04 16:30 | 51.41634 | 7.49858 | 8102 ft | 267 kts | 149° |
| 2026-05-04 16:31 | 51.39167 | 7.54395 | 10107 ft | 280 kts | 121° |
| 2026-05-04 16:31 | 51.35794 | 7.63363 | 11089 ft | 348 kts | 122° |
| 2026-05-04 16:32 | 51.30402 | 7.70610 | 13332 ft | 347 kts | 158° |
| 2026-05-04 16:33 | 51.26784 | 7.73508 | 14442 ft | 355 kts | 151° |
| 2026-05-04 16:33 | 51.22506 | 7.77619 | 15697 ft | 362 kts | 153° |
| 2026-05-04 16:34 | 51.18041 | 7.81522 | 17021 ft | 370 kts | 152° |
| 2026-05-04 16:34 | 51.15798 | 7.83578 | 17704 ft | 374 kts | 152° |
| 2026-05-04 16:35 | 51.08877 | 7.89781 | 19671 ft | 386 kts | 153° |
| 2026-05-04 16:35 | 51.01781 | 7.96155 | 21719 ft | 396 kts | 154° |
| 2026-05-04 16:36 | 50.99363 | 7.98305 | 22362 ft | 400 kts | 154° |
| 2026-05-04 16:36 | 50.94437 | 8.02698 | 23035 ft | 421 kts | 154° |
| 2026-05-04 16:37 | 50.89123 | 8.07418 | 23046 ft | 453 kts | 153° |
| 2026-05-04 16:37 | 50.86333 | 8.09899 | 23047 ft | 465 kts | 153° |
| 2026-05-04 16:37 | 50.80638 | 8.14944 | 23042 ft | 472 kts | 153° |
| 2026-05-04 16:38 | 50.74901 | 8.20009 | 23043 ft | 473 kts | 153° |
| 2026-05-04 16:39 | 50.66260 | 8.27612 | 23041 ft | 474 kts | 154° |
| 2026-05-04 16:39 | 50.60505 | 8.32656 | 23037 ft | 474 kts | 154° |
| 2026-05-04 16:40 | 50.54737 | 8.37698 | 23038 ft | 468 kts | 154° |
| 2026-05-04 16:40 | 50.49421 | 8.42344 | 23628 ft | 417 kts | 155° |
| 2026-05-04 16:41 | 50.44363 | 8.46722 | 24847 ft | 419 kts | 155° |
| 2026-05-04 16:41 | 50.36624 | 8.53440 | 26466 ft | 429 kts | 155° |
| 2026-05-04 16:42 | 50.28694 | 8.60289 | 28108 ft | 439 kts | 155° |
| 2026-05-04 16:43 | 50.23330 | 8.64904 | 29215 ft | 446 kts | 156° |
| 2026-05-04 16:43 | 50.17808 | 8.69646 | 30270 ft | 453 kts | 156° |
| 2026-05-04 16:43 | 50.15035 | 8.72022 | 30744 ft | 456 kts | 156° |
| 2026-05-04 16:44 | 50.03557 | 8.79137 | 32999 ft | 444 kts | 175° |
| 2026-05-04 16:45 | 49.97267 | 8.79221 | 33016 ft | 463 kts | 187° |
| 2026-05-04 16:46 | 49.87371 | 8.78289 | 33034 ft | 484 kts | 186° |
| 2026-05-04 16:46 | 49.80619 | 8.77628 | 33037 ft | 487 kts | 186° |
| 2026-05-04 16:47 | 49.67057 | 8.76349 | 33026 ft | 488 kts | 186° |
| 2026-05-04 16:48 | 49.53462 | 8.75069 | 33014 ft | 491 kts | 186° |
| 2026-05-04 16:49 | 49.39832 | 8.73793 | 33005 ft | 491 kts | 186° |
| 2026-05-04 16:50 | 49.26199 | 8.72523 | 33001 ft | 490 kts | 186° |
| 2026-05-04 16:51 | 49.15986 | 8.71575 | 33002 ft | 491 kts | 186° |
| 2026-05-04 16:52 | 49.02370 | 8.70317 | 33002 ft | 490 kts | 186° |
| 2026-05-04 16:53 | 48.92153 | 8.69381 | 33007 ft | 490 kts | 186° |
| 2026-05-04 16:54 | 48.78770 | 8.68165 | 32311 ft | 449 kts | 185° |
| 2026-05-04 16:55 | 48.66755 | 8.67061 | 30067 ft | 434 kts | 185° |
| 2026-05-04 16:55 | 48.60791 | 8.66528 | 28907 ft | 426 kts | 186° |
| 2026-05-04 16:56 | 48.54915 | 8.65991 | 27802 ft | 420 kts | 185° |
| 2026-05-04 16:56 | 48.46237 | 8.65211 | 26161 ft | 413 kts | 186° |
| 2026-05-04 16:57 | 48.43369 | 8.65105 | 25605 ft | 414 kts | 180° |
| 2026-05-04 16:57 | 48.37734 | 8.66747 | 24530 ft | 415 kts | 164° |
| 2026-05-04 16:58 | 48.30298 | 8.73370 | 22854 ft | 416 kts | 146° |
| 2026-05-04 16:58 | 48.27994 | 8.75958 | 22312 ft | 411 kts | 147° |
| 2026-05-04 16:59 | 48.23453 | 8.81030 | 21239 ft | 403 kts | 146° |
| 2026-05-04 17:00 | 48.14635 | 8.90908 | 19160 ft | 388 kts | 146° |
| 2026-05-04 17:00 | 48.08237 | 8.98045 | 17605 ft | 378 kts | 146° |
| 2026-05-04 17:01 | 48.04035 | 9.02718 | 16625 ft | 373 kts | 145° |
| 2026-05-04 17:01 | 47.99903 | 9.07304 | 15652 ft | 368 kts | 145° |
| 2026-05-04 17:02 | 47.95823 | 9.11823 | 14693 ft | 362 kts | 145° |
| 2026-05-04 17:02 | 47.91805 | 9.16263 | 13742 ft | 357 kts | 145° |
| 2026-05-04 17:03 | 47.89823 | 9.18451 | 13251 ft | 354 kts | 145° |
| 2026-05-04 17:03 | 47.87852 | 9.20626 | 12788 ft | 351 kts | 145° |
| 2026-05-04 17:03 | 47.83981 | 9.24887 | 11871 ft | 344 kts | 144° |
| 2026-05-04 17:04 | 47.80112 | 9.28840 | 10937 ft | 321 kts | 156° |
| 2026-05-04 17:04 | 47.76043 | 9.29578 | 10179 ft | 279 kts | 185° |
| 2026-05-04 17:05 | 47.72213 | 9.29065 | 9502 ft | 276 kts | 185° |
| 2026-05-04 17:05 | 47.68384 | 9.28556 | 8773 ft | 276 kts | 185° |
| 2026-05-04 17:06 | 47.64586 | 9.28047 | 8051 ft | 272 kts | 185° |
| 2026-05-04 17:06 | 47.62702 | 9.27796 | 7697 ft | 272 kts | 185° |
| 2026-05-04 17:07 | 47.59086 | 9.27315 | 7028 ft | 248 kts | 186° |
| 2026-05-04 17:07 | 47.57965 | 9.27165 | 6843 ft | 240 kts | 186° |
| 2026-05-04 17:07 | 47.55789 | 9.26874 | 6458 ft | 230 kts | 186° |
| 2026-05-04 17:07 | 47.54209 | 9.26700 | 6149 ft | 226 kts | 181° |
| 2026-05-04 17:08 | 47.52716 | 9.27412 | 5794 ft | 230 kts | 148° |
| 2026-05-04 17:08 | 47.51240 | 9.31467 | 5263 ft | 233 kts | 100° |
| 2026-05-04 17:08 | 47.50991 | 9.33853 | 5010 ft | 234 kts | 99° |
| 2026-05-04 17:09 | 47.50738 | 9.36186 | 4722 ft | 229 kts | 99° |
| 2026-05-04 17:09 | 47.50480 | 9.38466 | 4304 ft | 220 kts | 100° |
| 2026-05-04 17:09 | 47.50233 | 9.40639 | 3904 ft | 209 kts | 99° |
| 2026-05-04 17:10 | 47.49811 | 9.44398 | 3243 ft | 177 kts | 100° |
| 2026-05-04 17:10 | 47.49233 | 9.49497 | 2331 ft | 150 kts | 99° |
| 2026-05-04 17:11 | 47.49057 | 9.50997 | 2067 ft | 154 kts | 100° |
| 2026-05-04 17:11 | 47.48884 | 9.52501 | 1784 ft | 143 kts | 98° |
| 2026-05-04 17:11 | 47.48581 | 9.55377 | 1318 ft | 133 kts | 98° |
| 2026-05-04 17:12 | 47.48466 | 9.56461 | 1307 ft | 77 kts | 99° |
| 2026-05-04 17:12 | 47.48413 | 9.57018 | 1312 ft | 0 kts | 163° |
| 2026-05-04 17:13 | 47.48462 | 9.56484 | 1307 ft | 28 kts | 279° |
| 2026-05-04 17:14 | 47.48547 | 9.55678 | 1315 ft | 29 kts | 279° |
| 2026-05-04 17:14 | 47.48575 | 9.55415 | 1315 ft | 17 kts | 280° |
| 2026-05-04 17:14 | 47.48674 | 9.55251 | 1311 ft | 11 kts | 341° |
| 2026-05-04 17:15 | 47.48721 | 9.55254 | 1310 ft | 0 kts | 6° |